createdAt,value
2022-08-02T13:34:12.536Z,9.02
2022-08-02T13:35:18.133Z,8.75
2022-08-02T13:36:19.588Z,8.67
2022-08-02T13:37:22.293Z,8.49
2022-08-02T13:38:27.404Z,9.25
2022-08-02T13:39:31.777Z,8.70
2022-08-02T13:40:49.210Z,8.55
2022-08-02T13:41:39.137Z,7.45
2022-08-02T13:42:41.832Z,7.55
2022-08-02T13:43:53.450Z,7.51
2022-08-02T13:44:48.638Z,8.24
2022-08-02T13:45:51.078Z,7.57
2022-08-02T13:46:53.475Z,7.33
2022-08-02T13:48:04.586Z,7.03
2022-08-02T13:48:59.872Z,7.84
2022-08-02T13:50:03.050Z,6.15
2022-08-02T13:51:06.213Z,6.87
2022-08-02T13:52:08.732Z,7.17
2022-08-02T13:53:11.045Z,7.23
2022-08-02T13:54:13.553Z,6.51
2022-08-02T13:55:16.017Z,6.83
2022-08-02T13:56:18.570Z,7.41
2022-08-02T13:57:20.849Z,6.95
2022-08-02T13:58:23.070Z,7.23
2022-08-02T13:59:54.510Z,6.77
2022-08-02T14:00:34.666Z,5.87
2022-08-02T14:01:34.979Z,6.43
2022-08-02T14:02:40.424Z,6.67
2022-08-02T14:04:08.607Z,6.21
2022-08-02T14:04:46.396Z,6.14
2022-08-02T14:05:49.108Z,5.31
2022-08-02T14:06:51.315Z,6.03
2022-08-02T14:07:53.480Z,5.89
2022-08-02T14:08:55.945Z,5.65
2022-08-02T14:09:58.180Z,5.97
2022-08-02T14:11:00.399Z,5.99
2022-08-02T14:12:03.782Z,6.15
2022-08-02T14:13:06.296Z,5.64
2022-08-02T14:14:15.910Z,5.93
2022-08-02T14:15:12.801Z,5.82
2022-08-02T14:16:15.447Z,6.08
2022-08-02T14:17:17.780Z,5.79
2022-08-02T14:18:19.981Z,5.09
2022-08-02T14:19:22.718Z,5.71
2022-08-02T14:20:29.955Z,5.21
2022-08-02T14:21:29.565Z,5.45
2022-08-02T14:22:33.797Z,5.04
2022-08-02T14:23:49.943Z,5.51
2022-08-02T14:24:40.416Z,5.56
2022-08-02T14:25:43.235Z,5.25
2022-08-02T14:26:47.159Z,4.88
2022-08-02T14:27:49.388Z,5.26
2022-08-02T14:28:51.475Z,5.52
2022-08-02T14:29:53.944Z,4.88
2022-08-02T14:30:56.306Z,5.03
2022-08-02T14:31:58.683Z,4.39
2022-08-02T14:33:01.092Z,4.27
2022-08-02T14:34:03.290Z,4.65
2022-08-02T14:35:06.151Z,4.85
2022-08-02T14:36:08.596Z,4.89
2022-08-02T14:38:26.634Z,5.21
2022-08-02T14:39:42.735Z,4.46
2022-08-02T14:40:35.159Z,5.11
2022-08-02T14:41:58.261Z,4.63
2022-08-02T14:42:41.853Z,4.66
2022-08-02T14:43:44.389Z,5.28
2022-08-02T14:44:46.908Z,4.79
2022-08-02T14:45:49.106Z,4.81
2022-08-02T14:46:52.006Z,5.48
2022-08-02T14:47:55.620Z,4.64
2022-08-02T14:48:58.308Z,4.52
2022-08-02T14:50:00.710Z,5.09
2022-08-02T14:51:03.008Z,4.60
2022-08-02T14:52:05.237Z,5.28
2022-08-02T14:53:12.202Z,5.22
2022-08-02T14:54:12.205Z,4.98
2022-08-02T14:55:17.333Z,4.32
2022-08-02T14:56:20.004Z,4.08
2022-08-02T14:57:22.433Z,4.38
2022-08-02T14:58:26.447Z,4.58
2022-08-02T14:59:29.783Z,4.18
2022-08-02T15:00:33.485Z,4.67
2022-08-02T15:01:36.743Z,4.22
2022-08-02T15:02:39.727Z,4.33
2022-08-02T15:03:43.814Z,4.01
2022-08-02T15:04:46.351Z,5.15
2022-08-02T15:05:48.559Z,4.77
2022-08-02T15:06:51.690Z,4.28
2022-08-02T15:07:53.943Z,4.57
2022-08-02T15:08:56.256Z,4.59
2022-08-02T15:09:58.639Z,4.51
2022-08-02T15:11:00.893Z,4.66
2022-08-02T15:12:05.650Z,4.61
2022-08-02T15:13:07.686Z,4.80
2022-08-02T15:14:11.661Z,4.32
2022-08-02T15:15:14.383Z,4.67
2022-08-02T15:16:16.995Z,4.51
2022-08-02T15:17:19.372Z,5.16
2022-08-02T15:18:21.745Z,4.88
2022-08-02T15:19:41.655Z,5.21
2022-08-02T15:20:32.115Z,5.43
2022-08-02T15:21:41.346Z,5.45
2022-08-02T15:22:39.867Z,5.54
2022-08-02T15:23:43.450Z,5.45
2022-08-02T15:24:46.723Z,5.71
2022-08-02T15:25:50.678Z,6.06
2022-08-02T15:26:53.853Z,5.92
2022-08-02T15:27:56.046Z,5.55
2022-08-02T15:28:57.996Z,6.64
2022-08-02T15:30:00.865Z,5.84
2022-08-02T15:31:04.177Z,5.38
2022-08-02T15:32:06.714Z,5.32
2022-08-02T15:33:09.018Z,6.06
2022-08-02T15:34:11.678Z,5.83
2022-08-02T15:35:14.181Z,5.59
2022-08-02T15:36:17.612Z,5.96
2022-08-02T15:37:21.548Z,6.42
2022-08-02T15:38:23.990Z,6.07
2022-08-02T15:39:27.998Z,6.21
2022-08-02T15:40:30.786Z,5.87
2022-08-02T15:41:33.227Z,6.53
2022-08-02T15:42:35.600Z,6.63
2022-08-02T15:44:01.002Z,6.94
2022-08-02T15:44:42.166Z,6.73
2022-08-02T15:45:44.458Z,6.29
2022-08-02T15:46:46.791Z,6.21
2022-08-02T15:47:50.697Z,6.41
2022-08-02T15:48:53.091Z,6.32
2022-08-02T15:49:55.358Z,6.21
2022-08-02T15:50:57.684Z,6.70
2022-08-02T15:51:59.963Z,5.98
2022-08-02T15:53:02.165Z,5.50
2022-08-02T15:54:04.554Z,6.48
2022-08-02T15:55:07.633Z,6.15
2022-08-02T15:56:13.048Z,6.33
2022-08-02T15:57:14.725Z,6.16
2022-08-02T15:58:17.962Z,6.46
2022-08-02T15:59:21.026Z,6.02
2022-08-02T16:00:23.419Z,6.54
2022-08-02T16:01:25.931Z,6.44
2022-08-02T16:02:30.003Z,7.07
2022-08-02T16:03:32.473Z,7.16
2022-08-02T16:04:34.936Z,6.64
2022-08-02T16:05:37.984Z,7.37
2022-08-02T16:06:41.298Z,7.19
2022-08-02T16:07:44.072Z,6.99
2022-08-02T16:08:54.794Z,6.38
2022-08-02T16:09:50.838Z,6.23
2022-08-02T16:10:53.226Z,6.33
2022-08-02T16:11:55.634Z,6.29
2022-08-02T16:12:58.032Z,6.49
2022-08-02T16:14:00.531Z,6.35
2022-08-02T16:15:04.446Z,6.84
2022-08-02T16:16:06.869Z,6.42
2022-08-02T16:17:09.169Z,7.59
2022-08-02T16:18:11.837Z,6.45
2022-08-02T16:19:46.061Z,6.83
2022-08-02T16:20:19.733Z,6.18
2022-08-02T16:21:23.969Z,6.08
2022-08-02T16:22:26.513Z,6.17
2022-08-02T16:24:01.374Z,6.31
2022-08-02T16:24:33.102Z,6.99
2022-08-02T16:25:40.073Z,6.45
2022-08-02T16:26:39.859Z,6.38
2022-08-02T16:28:06.150Z,6.60
2022-08-02T16:28:46.651Z,6.06
2022-08-02T16:29:49.371Z,6.12
2022-08-02T16:31:04.993Z,6.18
2022-08-02T16:31:56.170Z,6.84
2022-08-02T16:32:58.576Z,7.71
2022-08-02T16:34:00.805Z,6.55
2022-08-02T16:35:07.838Z,6.88
2022-08-02T16:36:08.023Z,7.37
2022-08-02T16:37:10.556Z,6.36
2022-08-02T16:38:13.494Z,6.73
2022-08-02T16:39:15.874Z,6.74
2022-08-02T16:40:20.201Z,6.48
2022-08-02T16:41:23.211Z,6.09
2022-08-02T16:42:27.553Z,6.64
2022-08-02T16:43:30.060Z,7.39
2022-08-02T16:44:34.144Z,7.46
2022-08-02T16:45:36.390Z,7.52
2022-08-02T16:46:38.808Z,7.17
2022-08-02T16:47:44.205Z,7.53
2022-08-02T16:48:50.855Z,7.85
2022-08-02T16:50:06.538Z,6.94
2022-08-02T16:50:54.164Z,7.36
2022-08-02T16:51:56.666Z,8.21
2022-08-02T16:52:59.256Z,7.57
2022-08-02T16:54:01.539Z,7.65
2022-08-02T16:55:08.471Z,7.18
2022-08-02T16:56:09.295Z,6.47
2022-08-02T16:57:11.996Z,6.04
2022-08-02T16:58:15.964Z,4.97
2022-08-02T16:59:19.236Z,5.58
2022-08-02T17:00:21.911Z,5.29
2022-08-02T17:01:27.473Z,5.93
2022-08-02T17:02:30.222Z,5.36
2022-08-02T17:03:55.515Z,5.21
2022-08-02T17:04:36.710Z,4.54
2022-08-02T17:05:56.592Z,4.76
2022-08-02T17:06:47.986Z,4.70
2022-08-02T17:08:10.340Z,4.67
2022-08-02T17:08:54.608Z,4.26
2022-08-02T17:10:01.791Z,4.44
2022-08-02T17:11:03.725Z,4.41
2022-08-02T17:12:06.769Z,4.37
2022-08-02T17:13:11.688Z,4.25
2022-08-02T17:14:14.225Z,4.50
2022-08-02T17:16:26.348Z,4.72
2022-08-02T17:17:34.266Z,4.53
2022-08-02T17:18:33.912Z,4.69
2022-08-02T17:19:38.195Z,4.82
2022-08-02T17:20:40.586Z,4.80
2022-08-02T17:21:44.255Z,4.66
2022-08-02T17:22:46.560Z,4.99
2022-08-02T17:24:04.980Z,4.96
2022-08-02T17:24:53.424Z,4.62
2022-08-02T17:25:55.711Z,4.58
2022-08-02T17:26:58.317Z,5.17
2022-08-02T17:28:01.323Z,4.73
2022-08-02T17:29:14.120Z,5.01
2022-08-02T17:30:11.282Z,4.53
2022-08-02T17:31:13.727Z,5.24
2022-08-02T17:32:18.490Z,5.01
2022-08-02T17:33:21.337Z,5.00
2022-08-02T17:34:26.896Z,5.03
2022-08-02T17:35:52.402Z,5.41
2022-08-02T17:36:32.307Z,5.05
2022-08-02T17:37:38.692Z,4.91
2022-08-02T17:38:50.240Z,4.77
2022-08-02T17:39:52.009Z,4.85
2022-08-02T17:40:48.756Z,5.45
2022-08-02T17:41:51.585Z,4.70
2022-08-02T17:42:54.355Z,5.54
2022-08-02T17:43:57.166Z,6.69
2022-08-02T17:45:06.769Z,4.95
2022-08-02T17:46:04.965Z,5.04
2022-08-02T17:47:11.594Z,5.28
2022-08-02T17:48:14.800Z,5.46
2022-08-02T17:49:17.741Z,4.92
2022-08-02T17:50:21.216Z,4.59
2022-08-02T17:52:15.993Z,5.11
2022-08-02T17:52:50.797Z,4.97
2022-08-02T17:53:36.215Z,5.48
2022-08-02T17:54:38.227Z,5.12
2022-08-02T17:55:42.724Z,5.24
2022-08-02T17:56:49.551Z,5.63
2022-08-02T17:57:55.631Z,6.35
2022-08-02T17:58:56.505Z,5.31
2022-08-02T18:00:04.149Z,5.91
2022-08-02T18:01:23.650Z,5.81
2022-08-02T18:03:18.127Z,5.85
2022-08-02T18:04:26.873Z,5.80
2022-08-02T18:05:40.207Z,5.74
2022-08-02T18:06:31.656Z,6.35
2022-08-02T18:07:53.026Z,5.42
2022-08-02T18:08:39.793Z,6.14
2022-08-02T18:09:43.978Z,6.84
2022-08-02T18:10:47.077Z,6.84
2022-08-02T18:11:52.495Z,6.85
2022-08-02T18:12:56.156Z,7.21
2022-08-02T18:13:58.952Z,7.11
2022-08-02T18:15:01.350Z,8.21
2022-08-02T18:16:05.850Z,7.61
2022-08-02T18:17:10.389Z,7.80
2022-08-02T18:18:14.909Z,8.09
2022-08-02T18:19:18.857Z,8.37
2022-08-02T18:20:21.668Z,8.24
2022-08-02T18:21:25.315Z,8.26
2022-08-02T18:22:28.994Z,8.18
2022-08-02T18:23:31.599Z,8.65
2022-08-02T18:24:36.065Z,8.44
2022-08-02T18:25:45.855Z,8.29
2022-08-02T18:26:45.187Z,8.29
2022-08-02T18:27:49.382Z,7.94
2022-08-02T18:28:51.810Z,7.93
2022-08-02T18:30:04.584Z,8.44
2022-08-02T18:30:59.294Z,8.50
2022-08-02T18:32:04.082Z,9.11
2022-08-02T18:34:00.517Z,7.81
2022-08-02T18:34:10.505Z,8.27
2022-08-02T18:35:12.637Z,8.39
2022-08-02T18:36:24.570Z,8.15
2022-08-02T18:37:19.541Z,7.87
2022-08-02T18:38:24.267Z,7.31
2022-08-02T18:39:27.431Z,7.89
2022-08-02T18:40:32.121Z,7.80
2022-08-02T18:41:34.905Z,7.86
2022-08-02T18:42:37.267Z,8.45
2022-08-02T18:43:43.721Z,8.85
2022-08-02T18:44:44.651Z,8.05
2022-08-02T18:46:07.304Z,8.48
2022-08-02T18:46:53.238Z,7.19
2022-08-02T18:47:57.080Z,7.80
2022-08-02T18:49:14.643Z,7.95
2022-08-02T18:50:09.731Z,7.47
2022-08-02T18:51:14.215Z,8.58
2022-08-02T18:52:30.675Z,8.19
2022-08-02T18:53:28.008Z,8.22
2022-08-02T18:54:30.597Z,7.90
2022-08-02T18:55:59.852Z,8.28
2022-08-02T18:56:34.880Z,7.56
2022-08-02T18:58:02.296Z,7.93
2022-08-02T18:58:43.429Z,7.95
2022-08-02T18:59:47.355Z,6.96
2022-08-02T19:00:52.007Z,7.51
2022-08-02T19:01:54.551Z,7.47
2022-08-02T19:02:57.336Z,7.94
2022-08-02T19:04:01.026Z,6.86
2022-08-02T19:05:06.883Z,7.71
2022-08-02T19:06:09.641Z,7.58
2022-08-02T19:07:11.848Z,6.95
2022-08-02T19:08:15.239Z,7.59
2022-08-02T19:09:18.461Z,7.53
2022-08-02T19:10:21.254Z,6.54
2022-08-02T19:11:25.454Z,6.90
2022-08-02T19:12:29.558Z,6.28
2022-08-02T19:13:32.220Z,6.77
2022-08-02T19:14:34.312Z,6.15
2022-08-02T19:15:37.112Z,6.39
2022-08-02T19:16:39.563Z,6.25
2022-08-02T19:17:54.026Z,5.51
2022-08-02T19:18:47.580Z,5.64
2022-08-02T19:19:51.143Z,5.49
2022-08-02T19:20:56.235Z,5.62
2022-08-02T19:22:15.776Z,4.93
2022-08-02T19:23:03.288Z,5.32
2022-08-02T19:24:08.095Z,4.89
2022-08-02T19:25:15.955Z,4.62
2022-08-02T19:26:15.973Z,5.17
2022-08-02T19:27:25.808Z,5.11
2022-08-02T19:28:26.238Z,5.37
2022-08-02T19:29:43.376Z,5.62
2022-08-02T19:30:31.568Z,5.01
2022-08-02T19:31:34.731Z,5.43
2022-08-02T19:32:58.422Z,4.71
2022-08-02T19:34:06.368Z,5.52
2022-08-02T19:34:47.956Z,5.55
2022-08-02T19:36:01.632Z,5.26
2022-08-02T19:36:55.651Z,5.81
2022-08-02T19:38:07.601Z,5.20
2022-08-02T19:39:11.149Z,5.72
2022-08-02T19:40:16.465Z,5.63
2022-08-02T19:41:22.229Z,6.15
2022-08-02T19:42:24.635Z,5.73
2022-08-02T19:44:26.159Z,6.27
2022-08-02T19:44:31.309Z,6.12
2022-08-02T19:45:50.044Z,6.49
2022-08-02T19:46:37.967Z,6.47
2022-08-02T19:47:42.215Z,6.60
2022-08-02T19:48:47.437Z,6.15
2022-08-02T19:49:50.241Z,6.23
2022-08-02T19:51:00.610Z,6.55
2022-08-02T19:52:00.059Z,6.47
2022-08-02T19:53:03.150Z,6.54
2022-08-02T19:54:05.663Z,6.55
2022-08-02T19:56:00.943Z,7.11
2022-08-02T19:56:21.283Z,7.45
2022-08-02T19:57:19.398Z,7.62
2022-08-02T19:59:26.707Z,7.37
2022-08-02T20:00:32.255Z,6.82
2022-08-02T20:01:38.408Z,7.84
2022-08-02T20:02:39.036Z,7.64
2022-08-02T20:03:52.417Z,7.79
2022-08-02T20:04:49.951Z,6.89
2022-08-02T20:05:50.666Z,7.44
2022-08-02T20:06:52.811Z,7.93
2022-08-02T20:07:56.608Z,7.43
2022-08-02T20:09:01.390Z,6.94
2022-08-02T20:10:04.695Z,7.48
2022-08-02T20:11:07.225Z,7.72
2022-08-02T20:12:11.839Z,8.08
2022-08-02T20:13:14.257Z,6.94
2022-08-02T20:14:17.461Z,8.62
2022-08-02T20:15:21.987Z,6.90
2022-08-02T20:16:27.703Z,7.50
2022-08-02T20:17:28.915Z,7.65
2022-08-02T20:18:31.992Z,7.35
2022-08-02T20:19:34.216Z,7.81
2022-08-02T20:20:38.221Z,7.21
2022-08-02T20:21:42.827Z,7.41
2022-08-02T20:22:45.424Z,7.82
2022-08-02T20:23:49.648Z,7.64
2022-08-02T20:24:52.995Z,7.89
2022-08-02T20:25:55.235Z,6.97
2022-08-02T20:26:59.770Z,8.05
2022-08-02T20:28:03.085Z,7.56
2022-08-02T20:29:05.193Z,8.41
2022-08-02T20:30:08.709Z,7.77
2022-08-02T20:31:12.936Z,6.82
2022-08-02T20:32:15.792Z,7.05
2022-08-02T20:33:22.202Z,7.67
2022-08-02T20:34:22.908Z,8.59
2022-08-02T20:35:27.302Z,7.73
2022-08-02T20:36:30.074Z,7.33
2022-08-02T20:38:37.028Z,7.49
2022-08-02T20:39:42.726Z,7.20
2022-08-02T20:40:44.240Z,7.82
2022-08-02T20:41:52.957Z,7.29
2022-08-02T20:42:53.624Z,7.38
2022-08-02T20:43:56.284Z,7.14
2022-08-02T20:44:58.899Z,7.27
2022-08-02T20:46:01.341Z,7.57
2022-08-02T20:47:03.645Z,6.77
2022-08-02T20:48:06.959Z,7.21
2022-08-02T20:49:17.469Z,7.24
2022-08-02T20:50:14.728Z,6.96
2022-08-02T20:51:18.703Z,7.66
2022-08-02T20:52:24.520Z,7.69
2022-08-02T20:53:29.800Z,7.63
2022-08-02T20:54:32.147Z,7.26
2022-08-02T20:55:42.815Z,7.65
2022-08-02T20:56:45.362Z,7.86
2022-08-02T20:58:00.659Z,7.31
2022-08-02T20:58:53.738Z,7.37
2022-08-02T20:59:57.977Z,7.02
2022-08-02T21:01:00.927Z,7.30
2022-08-02T21:02:03.432Z,7.93
2022-08-02T21:03:06.811Z,7.09
2022-08-02T21:04:16.312Z,7.38
2022-08-02T21:05:17.259Z,7.23
2022-08-02T21:06:18.824Z,8.41
2022-08-02T21:07:23.061Z,7.44
2022-08-02T21:08:26.295Z,8.91
2022-08-02T21:09:52.575Z,7.80
2022-08-02T21:10:33.630Z,7.42
2022-08-02T21:11:36.019Z,8.04
2022-08-02T21:12:38.366Z,7.44
2022-08-02T21:13:46.423Z,7.36
2022-08-02T21:14:47.004Z,7.51
2022-08-02T21:15:51.683Z,7.31
2022-08-02T21:16:54.355Z,7.84
2022-08-02T21:18:03.804Z,7.43
2022-08-02T21:19:01.596Z,7.19
2022-08-02T21:20:04.684Z,7.14
2022-08-02T21:21:08.904Z,7.05
2022-08-02T21:22:11.530Z,6.89
2022-08-02T21:23:19.772Z,7.46
2022-08-02T21:24:18.766Z,7.98
2022-08-02T21:25:23.892Z,7.77
2022-08-02T21:26:31.274Z,7.77
2022-08-02T21:27:51.788Z,7.19
2022-08-02T21:28:44.913Z,7.78
2022-08-02T21:29:40.381Z,7.16
2022-08-02T21:30:42.683Z,6.86
2022-08-02T21:31:45.318Z,7.29
2022-08-02T21:32:49.553Z,7.66
2022-08-02T21:33:57.325Z,7.29
2022-08-02T21:34:57.411Z,6.79
2022-08-02T21:35:59.590Z,6.65
2022-08-02T21:37:09.915Z,7.09
2022-08-02T21:38:06.718Z,8.11
2022-08-02T21:39:10.817Z,7.44
2022-08-02T21:40:14.002Z,6.69
2022-08-02T21:41:19.692Z,6.96
2022-08-02T21:42:22.744Z,6.91
2022-08-02T21:43:35.410Z,7.07
2022-08-02T21:44:30.846Z,7.16
2022-08-02T21:45:33.106Z,6.83
2022-08-02T21:46:36.289Z,6.99
2022-08-02T21:47:38.816Z,6.73
2022-08-02T21:48:41.241Z,8.18
2022-08-02T21:50:10.437Z,7.09
2022-08-02T21:50:48.122Z,7.08
2022-08-02T21:51:52.208Z,7.73
2022-08-02T21:52:54.421Z,6.23
2022-08-02T21:54:16.854Z,7.11
2022-08-02T21:55:00.606Z,7.08
2022-08-02T21:56:03.649Z,6.76
2022-08-02T21:57:08.088Z,6.47
2022-08-02T21:58:12.218Z,6.27
2022-08-02T21:59:16.236Z,6.42
2022-08-02T22:00:28.856Z,7.49
2022-08-02T22:01:24.612Z,6.12
2022-08-02T22:02:30.736Z,6.30
2022-08-02T22:03:31.973Z,7.40
2022-08-02T22:04:35.231Z,6.22
2022-08-02T22:05:37.594Z,6.45
2022-08-02T22:06:41.802Z,6.25
2022-08-02T22:07:45.804Z,5.89
2022-08-02T22:08:48.470Z,7.05
2022-08-02T22:09:52.072Z,6.75
2022-08-02T22:10:55.203Z,6.95
2022-08-02T22:11:57.423Z,6.64
2022-08-02T22:12:59.811Z,6.63
2022-08-02T22:14:02.033Z,7.37
2022-08-02T22:15:06.478Z,6.59
2022-08-02T22:16:10.801Z,6.09
2022-08-02T22:17:13.789Z,6.69
2022-08-02T22:18:16.340Z,7.22
2022-08-02T22:19:20.528Z,6.91
2022-08-02T22:20:24.132Z,6.21
2022-08-02T22:21:32.401Z,6.72
2022-08-02T22:22:31.280Z,7.12
2022-08-02T22:23:38.946Z,7.34
2022-08-02T22:24:37.819Z,6.79
2022-08-02T22:25:40.038Z,6.26
2022-08-02T22:26:43.004Z,7.03
2022-08-02T22:28:34.794Z,7.35
2022-08-02T22:28:59.513Z,6.81
2022-08-02T22:29:56.145Z,7.56
2022-08-02T22:31:00.460Z,6.28
2022-08-02T22:32:03.313Z,6.77
2022-08-02T22:33:14.837Z,6.59
2022-08-02T22:34:26.557Z,6.91
2022-08-02T22:35:15.200Z,6.16
2022-08-02T22:36:19.336Z,7.07
2022-08-02T22:38:27.899Z,6.89
2022-08-02T22:39:30.150Z,7.39
2022-08-02T22:40:34.519Z,6.84
2022-08-02T22:42:00.233Z,6.74
2022-08-02T22:42:42.271Z,6.99
2022-08-02T22:43:44.413Z,7.29
2022-08-02T22:44:46.775Z,7.05
2022-08-02T22:45:50.806Z,7.14
2022-08-02T22:46:53.251Z,7.29
2022-08-02T22:47:55.452Z,7.19
2022-08-02T22:48:59.388Z,6.79
2022-08-02T22:50:04.756Z,7.63
2022-08-02T22:51:07.371Z,7.01
2022-08-02T22:52:10.745Z,7.15
2022-08-02T22:53:13.168Z,7.82
2022-08-02T22:54:17.311Z,6.76
2022-08-02T22:55:19.575Z,7.31
2022-08-02T22:56:24.486Z,6.62
2022-08-02T22:57:31.135Z,7.83
2022-08-02T22:58:31.400Z,8.08
2022-08-02T22:58:37.743Z,4.51
2022-08-02T22:59:05.533Z,7.39
2022-08-02T22:59:08.139Z,7.63
2022-08-02T22:59:09.598Z,6.51
2022-08-02T22:59:39.369Z,8.24
2022-08-02T23:00:38.466Z,8.21
2022-08-02T23:01:40.919Z,7.26
2022-08-02T23:02:43.273Z,8.53
2022-08-02T23:03:47.333Z,6.89
2022-08-02T23:04:49.387Z,7.49
2022-08-02T23:05:51.791Z,7.44
2022-08-02T23:06:54.135Z,7.05
2022-08-02T23:07:56.703Z,7.57
2022-08-02T23:08:58.890Z,7.15
2022-08-02T23:10:01.115Z,7.85
2022-08-02T23:11:04.110Z,7.35
2022-08-02T23:12:06.635Z,8.39
2022-08-02T23:13:10.386Z,7.53
2022-08-02T23:14:12.715Z,7.83
2022-08-02T23:15:14.913Z,6.91
2022-08-02T23:16:20.529Z,7.13
2022-08-02T23:17:23.130Z,7.36
2022-08-02T23:18:25.773Z,7.19
2022-08-02T23:19:28.046Z,7.60
2022-08-02T23:20:30.482Z,7.03
2022-08-02T23:22:01.191Z,8.01
2022-08-02T23:22:37.453Z,7.81
2022-08-02T23:23:39.735Z,7.34
2022-08-02T23:24:42.401Z,7.96
2022-08-02T23:25:44.859Z,7.19
2022-08-02T23:26:47.121Z,7.71
2022-08-02T23:27:50.690Z,7.89
2022-08-02T23:28:53.492Z,6.96
2022-08-02T23:29:55.882Z,6.97
2022-08-02T23:30:58.026Z,7.28
2022-08-02T23:32:00.349Z,7.25
2022-08-02T23:33:03.160Z,7.26
2022-08-02T23:34:05.415Z,7.19
2022-08-02T23:35:08.547Z,6.39
2022-08-02T23:36:10.696Z,7.21
2022-08-02T23:37:12.952Z,7.09
2022-08-02T23:38:15.089Z,7.97
2022-08-02T23:39:17.515Z,7.27
2022-08-02T23:40:38.818Z,7.28
2022-08-02T23:41:24.223Z,6.99
2022-08-02T23:42:26.543Z,6.81
2022-08-02T23:43:28.824Z,6.53
2022-08-02T23:44:31.013Z,7.10
2022-08-02T23:45:35.541Z,7.27
2022-08-02T23:46:41.419Z,7.60
2022-08-02T23:47:43.845Z,7.19
2022-08-02T23:48:46.019Z,7.15
2022-08-02T23:49:48.310Z,7.67
2022-08-02T23:50:50.613Z,8.01
2022-08-02T23:51:54.029Z,7.70
2022-08-02T23:52:57.950Z,6.89
2022-08-02T23:54:00.113Z,6.85
2022-08-02T23:55:02.376Z,7.64
2022-08-02T23:56:05.429Z,7.47
2022-08-02T23:57:19.806Z,7.02
2022-08-02T23:58:12.009Z,7.58
2022-08-02T23:59:14.429Z,7.46
